KJAU

Details ICAO KJAU
Name Campbell County
Region United States
Timezone America/New_York (UTC-5.0)
Plans Departing 2
Arriving 0
Stats Elevation 1,180 ft / 360 m (AMSL)
Location 36.334089° -84.162965°
Runways 1
Magnetic Variation 5.668° W
Sunrise 2017-12-11 12:39:38 UTC / 2017-12-11 07:39:38 Local
Sunset 2017-12-11 22:23:18 UTC / 2017-12-11 17:23:18 Local
Advertisement - Login to hide

Runways

ID Width Length Bearing (true) Bearing (mag) Surface Threshold Offset Overrun Length
05 75 ft / 23 m 4,004 ft / 1,221 m 45.55° 51.22° Asphalt 0 ft / 0 m 0 ft / 0 m
23 75 ft / 23 m 4,004 ft / 1,221 m 225.56° 231.23° Asphalt 0 ft / 0 m 0 ft / 0 m

Map

Weather


0- 5 10 15 20 25 30 35+ Temperature / ° C

Clouds and Precipitation
Forecast for 2017-12-11 06:00 UTC. Updated an hour ago

Ground ~20,000 ft ~40,000 ft Winds

METAR

KJAU 110615Z AUTO 00000KT 10SM CLR M01/M05 A3020 RMK A01

TAF

Not found

Frequencies

Recorded 124.97 MHz AWOS 3
Unicom 122.80 MHz CTAF/UNICOM
Warning: Do not use this data for real-world aviation or navigation. No guarantee of current accuracy is given.